sensor_id;sensor_type;location;lat;lon;timestamp;P1;durP1;ratioP1;P2;durP2;ratioP2
12383;SDS011;6256;63.808;20.336;2023-10-13T00:00:10;0.70;;;0.53;;
12383;SDS011;6256;63.808;20.336;2023-10-13T00:02:50;0.90;;;0.90;;
12383;SDS011;6256;63.808;20.336;2023-10-13T00:05:18;1.60;;;0.80;;
12383;SDS011;6256;63.808;20.336;2023-10-13T00:07:44;0.60;;;0.60;;
12383;SDS011;6256;63.808;20.336;2023-10-13T00:10:10;0.50;;;0.50;;
12383;SDS011;6256;63.808;20.336;2023-10-13T00:12:37;0.83;;;0.70;;
12383;SDS011;6256;63.808;20.336;2023-10-13T00:15:03;1.17;;;0.60;;
12383;SDS011;6256;63.808;20.336;2023-10-13T00:17:32;0.50;;;0.50;;
12383;SDS011;6256;63.808;20.336;2023-10-13T00:19:57;1.17;;;0.87;;
12383;SDS011;6256;63.808;20.336;2023-10-13T00:22:25;0.70;;;0.70;;
12383;SDS011;6256;63.808;20.336;2023-10-13T00:24:52;0.83;;;0.83;;
12383;SDS011;6256;63.808;20.336;2023-10-13T00:27:23;0.50;;;0.50;;
12383;SDS011;6256;63.808;20.336;2023-10-13T00:29:59;0.80;;;0.80;;
12383;SDS011;6256;63.808;20.336;2023-10-13T00:32:43;1.60;;;0.80;;
12383;SDS011;6256;63.808;20.336;2023-10-13T00:35:10;2.73;;;1.03;;
12383;SDS011;6256;63.808;20.336;2023-10-13T00:38:00;0.50;;;0.50;;
12383;SDS011;6256;63.808;20.336;2023-10-13T00:40:41;0.50;;;0.50;;
12383;SDS011;6256;63.808;20.336;2023-10-13T00:43:09;0.80;;;0.80;;
12383;SDS011;6256;63.808;20.336;2023-10-13T00:48:53;0.97;;;0.70;;
12383;SDS011;6256;63.808;20.336;2023-10-13T00:51:19;0.50;;;0.50;;
12383;SDS011;6256;63.808;20.336;2023-10-13T00:54:06;1.07;;;0.80;;
12383;SDS011;6256;63.808;20.336;2023-10-13T00:56:40;1.03;;;1.00;;
12383;SDS011;6256;63.808;20.336;2023-10-13T00:59:12;0.93;;;0.87;;
12383;SDS011;6256;63.808;20.336;2023-10-13T01:01:39;0.57;;;0.57;;
12383;SDS011;6256;63.808;20.336;2023-10-13T01:04:07;0.60;;;0.60;;
12383;SDS011;6256;63.808;20.336;2023-10-13T01:06:37;0.43;;;0.43;;
12383;SDS011;6256;63.808;20.336;2023-10-13T01:09:07;0.67;;;0.67;;
12383;SDS011;6256;63.808;20.336;2023-10-13T01:11:44;1.70;;;0.63;;
12383;SDS011;6256;63.808;20.336;2023-10-13T01:14:17;0.50;;;0.50;;
12383;SDS011;6256;63.808;20.336;2023-10-13T01:16:45;1.13;;;0.90;;
12383;SDS011;6256;63.808;20.336;2023-10-13T01:19:12;0.80;;;0.80;;
12383;SDS011;6256;63.808;20.336;2023-10-13T01:21:40;0.40;;;0.40;;
12383;SDS011;6256;63.808;20.336;2023-10-13T01:24:06;1.33;;;0.90;;
12383;SDS011;6256;63.808;20.336;2023-10-13T01:26:36;0.60;;;0.60;;
12383;SDS011;6256;63.808;20.336;2023-10-13T01:29:04;0.50;;;0.50;;
12383;SDS011;6256;63.808;20.336;2023-10-13T01:31:43;0.40;;;0.40;;
12383;SDS011;6256;63.808;20.336;2023-10-13T01:36:44;0.87;;;0.87;;
12383;SDS011;6256;63.808;20.336;2023-10-13T01:39:10;0.53;;;0.53;;
12383;SDS011;6256;63.808;20.336;2023-10-13T01:41:37;0.70;;;0.70;;
12383;SDS011;6256;63.808;20.336;2023-10-13T01:44:04;0.50;;;0.50;;
12383;SDS011;6256;63.808;20.336;2023-10-13T01:46:30;0.60;;;0.60;;
12383;SDS011;6256;63.808;20.336;2023-10-13T01:48:55;0.90;;;0.70;;
12383;SDS011;6256;63.808;20.336;2023-10-13T01:51:22;0.73;;;0.63;;
12383;SDS011;6256;63.808;20.336;2023-10-13T01:53:53;0.73;;;0.60;;
12383;SDS011;6256;63.808;20.336;2023-10-13T01:56:23;0.50;;;0.50;;
12383;SDS011;6256;63.808;20.336;2023-10-13T01:58:49;0.63;;;0.63;;
12383;SDS011;6256;63.808;20.336;2023-10-13T02:01:15;0.50;;;0.50;;
12383;SDS011;6256;63.808;20.336;2023-10-13T02:03:54;1.00;;;0.70;;
12383;SDS011;6256;63.808;20.336;2023-10-13T02:06:28;0.73;;;0.73;;
12383;SDS011;6256;63.808;20.336;2023-10-13T02:11:45;0.60;;;0.60;;
12383;SDS011;6256;63.808;20.336;2023-10-13T02:14:11;2.73;;;1.00;;
12383;SDS011;6256;63.808;20.336;2023-10-13T02:16:41;1.30;;;0.60;;
12383;SDS011;6256;63.808;20.336;2023-10-13T02:19:06;0.93;;;0.80;;
12383;SDS011;6256;63.808;20.336;2023-10-13T02:21:36;0.40;;;0.40;;
12383;SDS011;6256;63.808;20.336;2023-10-13T02:24:07;0.80;;;0.80;;
12383;SDS011;6256;63.808;20.336;2023-10-13T02:26:43;0.70;;;0.70;;
12383;SDS011;6256;63.808;20.336;2023-10-13T02:29:10;0.60;;;0.60;;
12383;SDS011;6256;63.808;20.336;2023-10-13T02:31:39;0.57;;;0.57;;
12383;SDS011;6256;63.808;20.336;2023-10-13T02:34:07;0.50;;;0.50;;
12383;SDS011;6256;63.808;20.336;2023-10-13T02:36:36;0.30;;;0.30;;
12383;SDS011;6256;63.808;20.336;2023-10-13T02:39:09;0.83;;;0.83;;
12383;SDS011;6256;63.808;20.336;2023-10-13T02:41:35;0.67;;;0.67;;
12383;SDS011;6256;63.808;20.336;2023-10-13T02:44:04;0.77;;;0.60;;
12383;SDS011;6256;63.808;20.336;2023-10-13T02:46:35;0.30;;;0.30;;
12383;SDS011;6256;63.808;20.336;2023-10-13T02:49:02;0.40;;;0.40;;
12383;SDS011;6256;63.808;20.336;2023-10-13T02:51:36;0.40;;;0.40;;
12383;SDS011;6256;63.808;20.336;2023-10-13T02:54:02;0.50;;;0.50;;
12383;SDS011;6256;63.808;20.336;2023-10-13T02:56:43;0.40;;;0.40;;
12383;SDS011;6256;63.808;20.336;2023-10-13T02:59:14;1.13;;;1.03;;
12383;SDS011;6256;63.808;20.336;2023-10-13T03:01:40;0.40;;;0.40;;
12383;SDS011;6256;63.808;20.336;2023-10-13T03:04:06;0.30;;;0.30;;
12383;SDS011;6256;63.808;20.336;2023-10-13T03:06:34;0.40;;;0.40;;
12383;SDS011;6256;63.808;20.336;2023-10-13T03:09:09;0.50;;;0.50;;
12383;SDS011;6256;63.808;20.336;2023-10-13T03:11:47;0.83;;;0.50;;
12383;SDS011;6256;63.808;20.336;2023-10-13T03:14:14;0.67;;;0.67;;
12383;SDS011;6256;63.808;20.336;2023-10-13T03:17:04;0.90;;;0.90;;
12383;SDS011;6256;63.808;20.336;2023-10-13T03:19:31;0.67;;;0.67;;
12383;SDS011;6256;63.808;20.336;2023-10-13T03:22:07;0.90;;;0.80;;
12383;SDS011;6256;63.808;20.336;2023-10-13T03:24:39;0.70;;;0.53;;
12383;SDS011;6256;63.808;20.336;2023-10-13T03:27:15;0.50;;;0.50;;
12383;SDS011;6256;63.808;20.336;2023-10-13T03:29:42;1.10;;;1.00;;
12383;SDS011;6256;63.808;20.336;2023-10-13T03:32:09;0.70;;;0.70;;
12383;SDS011;6256;63.808;20.336;2023-10-13T03:34:40;0.37;;;0.37;;
12383;SDS011;6256;63.808;20.336;2023-10-13T03:37:14;1.40;;;0.60;;
12383;SDS011;6256;63.808;20.336;2023-10-13T03:40:01;0.77;;;0.77;;
12383;SDS011;6256;63.808;20.336;2023-10-13T03:42:31;0.53;;;0.53;;
12383;SDS011;6256;63.808;20.336;2023-10-13T03:44:57;0.57;;;0.57;;
12383;SDS011;6256;63.808;20.336;2023-10-13T03:47:23;1.00;;;0.80;;
12383;SDS011;6256;63.808;20.336;2023-10-13T03:49:52;0.50;;;0.50;;
12383;SDS011;6256;63.808;20.336;2023-10-13T03:52:39;0.43;;;0.43;;
12383;SDS011;6256;63.808;20.336;2023-10-13T03:55:05;0.77;;;0.77;;
12383;SDS011;6256;63.808;20.336;2023-10-13T03:57:32;0.60;;;0.60;;
12383;SDS011;6256;63.808;20.336;2023-10-13T04:00:03;0.53;;;0.53;;
12383;SDS011;6256;63.808;20.336;2023-10-13T04:02:34;1.00;;;0.90;;
12383;SDS011;6256;63.808;20.336;2023-10-13T04:05:02;0.67;;;0.67;;
12383;SDS011;6256;63.808;20.336;2023-10-13T04:07:33;0.50;;;0.50;;
12383;SDS011;6256;63.808;20.336;2023-10-13T04:10:06;0.63;;;0.63;;
12383;SDS011;6256;63.808;20.336;2023-10-13T04:12:55;0.70;;;0.70;;
12383;SDS011;6256;63.808;20.336;2023-10-13T04:15:42;0.50;;;0.50;;
12383;SDS011;6256;63.808;20.336;2023-10-13T04:18:26;0.70;;;0.70;;
12383;SDS011;6256;63.808;20.336;2023-10-13T04:21:11;0.40;;;0.40;;
12383;SDS011;6256;63.808;20.336;2023-10-13T04:23:56;0.33;;;0.33;;
12383;SDS011;6256;63.808;20.336;2023-10-13T04:26:49;3.87;;;1.50;;
12383;SDS011;6256;63.808;20.336;2023-10-13T04:29:35;0.47;;;0.47;;
12383;SDS011;6256;63.808;20.336;2023-10-13T04:32:13;1.07;;;0.90;;
12383;SDS011;6256;63.808;20.336;2023-10-13T04:34:40;0.40;;;0.40;;
12383;SDS011;6256;63.808;20.336;2023-10-13T04:37:11;0.40;;;0.40;;
12383;SDS011;6256;63.808;20.336;2023-10-13T04:40:13;0.43;;;0.43;;
12383;SDS011;6256;63.808;20.336;2023-10-13T04:42:39;0.93;;;0.93;;
12383;SDS011;6256;63.808;20.336;2023-10-13T04:45:16;1.23;;;0.90;;
12383;SDS011;6256;63.808;20.336;2023-10-13T04:47:58;0.60;;;0.60;;
12383;SDS011;6256;63.808;20.336;2023-10-13T04:50:44;1.23;;;0.57;;
12383;SDS011;6256;63.808;20.336;2023-10-13T04:53:22;0.70;;;0.70;;
12383;SDS011;6256;63.808;20.336;2023-10-13T04:56:20;0.60;;;0.60;;
12383;SDS011;6256;63.808;20.336;2023-10-13T04:59:04;0.50;;;0.50;;
12383;SDS011;6256;63.808;20.336;2023-10-13T05:01:48;0.50;;;0.50;;
12383;SDS011;6256;63.808;20.336;2023-10-13T05:04:32;0.60;;;0.60;;
12383;SDS011;6256;63.808;20.336;2023-10-13T05:07:24;0.60;;;0.60;;
12383;SDS011;6256;63.808;20.336;2023-10-13T05:10:08;0.97;;;0.60;;
12383;SDS011;6256;63.808;20.336;2023-10-13T05:12:52;0.93;;;0.90;;
12383;SDS011;6256;63.808;20.336;2023-10-13T05:16:10;3.30;;;1.30;;
12383;SDS011;6256;63.808;20.336;2023-10-13T05:18:47;1.07;;;0.93;;
12383;SDS011;6256;63.808;20.336;2023-10-13T05:21:31;0.87;;;0.87;;
12383;SDS011;6256;63.808;20.336;2023-10-13T05:24:15;1.53;;;1.10;;
12383;SDS011;6256;63.808;20.336;2023-10-13T05:27:00;4.50;;;1.23;;
12383;SDS011;6256;63.808;20.336;2023-10-13T05:29:45;0.83;;;0.83;;
12383;SDS011;6256;63.808;20.336;2023-10-13T05:32:30;0.60;;;0.60;;
12383;SDS011;6256;63.808;20.336;2023-10-13T05:35:15;0.50;;;0.50;;
12383;SDS011;6256;63.808;20.336;2023-10-13T05:37:59;1.17;;;1.00;;
12383;SDS011;6256;63.808;20.336;2023-10-13T05:43:40;0.67;;;0.67;;
12383;SDS011;6256;63.808;20.336;2023-10-13T05:46:25;1.33;;;1.33;;
12383;SDS011;6256;63.808;20.336;2023-10-13T05:48:54;0.70;;;0.70;;
12383;SDS011;6256;63.808;20.336;2023-10-13T05:51:39;0.60;;;0.60;;
12383;SDS011;6256;63.808;20.336;2023-10-13T05:54:17;0.90;;;0.90;;
12383;SDS011;6256;63.808;20.336;2023-10-13T05:59:28;1.97;;;0.90;;
12383;SDS011;6256;63.808;20.336;2023-10-13T06:02:15;0.50;;;0.50;;
12383;SDS011;6256;63.808;20.336;2023-10-13T06:05:03;2.70;;;0.90;;
12383;SDS011;6256;63.808;20.336;2023-10-13T06:07:49;1.97;;;1.80;;
12383;SDS011;6256;63.808;20.336;2023-10-13T06:10:34;1.80;;;1.70;;
12383;SDS011;6256;63.808;20.336;2023-10-13T06:13:18;9.63;;;1.50;;
12383;SDS011;6256;63.808;20.336;2023-10-13T06:16:09;2.13;;;1.20;;
12383;SDS011;6256;63.808;20.336;2023-10-13T06:18:54;4.33;;;0.83;;
12383;SDS011;6256;63.808;20.336;2023-10-13T06:21:39;0.80;;;0.80;;
12383;SDS011;6256;63.808;20.336;2023-10-13T06:24:23;0.57;;;0.57;;
12383;SDS011;6256;63.808;20.336;2023-10-13T06:27:08;3.77;;;1.40;;
12383;SDS011;6256;63.808;20.336;2023-10-13T06:29:53;1.60;;;1.53;;
12383;SDS011;6256;63.808;20.336;2023-10-13T06:32:19;0.80;;;0.80;;
12383;SDS011;6256;63.808;20.336;2023-10-13T06:34:45;1.40;;;1.13;;
12383;SDS011;6256;63.808;20.336;2023-10-13T06:37:12;3.77;;;2.07;;
12383;SDS011;6256;63.808;20.336;2023-10-13T06:39:54;5.47;;;1.67;;
12383;SDS011;6256;63.808;20.336;2023-10-13T06:42:24;4.67;;;1.30;;
12383;SDS011;6256;63.808;20.336;2023-10-13T06:44:56;0.93;;;0.93;;
12383;SDS011;6256;63.808;20.336;2023-10-13T06:47:25;1.17;;;1.10;;
12383;SDS011;6256;63.808;20.336;2023-10-13T06:49:52;7.43;;;1.67;;
12383;SDS011;6256;63.808;20.336;2023-10-13T06:52:22;1.90;;;1.03;;
12383;SDS011;6256;63.808;20.336;2023-10-13T06:54:54;1.90;;;0.90;;
12383;SDS011;6256;63.808;20.336;2023-10-13T06:57:20;7.17;;;1.37;;
12383;SDS011;6256;63.808;20.336;2023-10-13T06:59:47;3.93;;;1.03;;
12383;SDS011;6256;63.808;20.336;2023-10-13T07:02:13;0.90;;;0.87;;
12383;SDS011;6256;63.808;20.336;2023-10-13T07:04:48;1.47;;;1.37;;
12383;SDS011;6256;63.808;20.336;2023-10-13T07:07:22;2.63;;;0.97;;
12383;SDS011;6256;63.808;20.336;2023-10-13T07:09:49;4.33;;;1.13;;
12383;SDS011;6256;63.808;20.336;2023-10-13T07:12:20;1.60;;;1.00;;
12383;SDS011;6256;63.808;20.336;2023-10-13T07:14:52;5.47;;;1.40;;
12383;SDS011;6256;63.808;20.336;2023-10-13T07:17:36;2.67;;;1.10;;
12383;SDS011;6256;63.808;20.336;2023-10-13T07:20:05;1.30;;;1.20;;
12383;SDS011;6256;63.808;20.336;2023-10-13T07:22:48;1.57;;;1.20;;
12383;SDS011;6256;63.808;20.336;2023-10-13T07:25:23;1.47;;;1.23;;
12383;SDS011;6256;63.808;20.336;2023-10-13T07:27:50;10.13;;;1.90;;
12383;SDS011;6256;63.808;20.336;2023-10-13T07:30:18;6.57;;;1.23;;
12383;SDS011;6256;63.808;20.336;2023-10-13T07:32:45;1.23;;;1.00;;
12383;SDS011;6256;63.808;20.336;2023-10-13T07:35:15;3.27;;;0.80;;
12383;SDS011;6256;63.808;20.336;2023-10-13T07:37:43;1.63;;;0.90;;
12383;SDS011;6256;63.808;20.336;2023-10-13T07:40:10;0.73;;;0.73;;
12383;SDS011;6256;63.808;20.336;2023-10-13T07:42:56;2.00;;;0.80;;
12383;SDS011;6256;63.808;20.336;2023-10-13T07:45:38;1.60;;;1.00;;
12383;SDS011;6256;63.808;20.336;2023-10-13T07:48:09;0.73;;;0.60;;
12383;SDS011;6256;63.808;20.336;2023-10-13T07:51:00;2.17;;;0.83;;
12383;SDS011;6256;63.808;20.336;2023-10-13T07:53:37;4.67;;;0.80;;
12383;SDS011;6256;63.808;20.336;2023-10-13T07:56:05;1.23;;;1.13;;
12383;SDS011;6256;63.808;20.336;2023-10-13T07:58:33;0.63;;;0.63;;
12383;SDS011;6256;63.808;20.336;2023-10-13T08:01:11;0.90;;;0.77;;
12383;SDS011;6256;63.808;20.336;2023-10-13T08:03:42;0.80;;;0.80;;
12383;SDS011;6256;63.808;20.336;2023-10-13T08:06:15;0.80;;;0.80;;
12383;SDS011;6256;63.808;20.336;2023-10-13T08:08:42;3.30;;;0.90;;
12383;SDS011;6256;63.808;20.336;2023-10-13T08:11:12;1.10;;;1.00;;
12383;SDS011;6256;63.808;20.336;2023-10-13T08:16:25;1.13;;;0.80;;
12383;SDS011;6256;63.808;20.336;2023-10-13T08:19:13;0.80;;;0.80;;
12383;SDS011;6256;63.808;20.336;2023-10-13T08:21:45;0.67;;;0.67;;
12383;SDS011;6256;63.808;20.336;2023-10-13T08:24:22;1.90;;;1.23;;
12383;SDS011;6256;63.808;20.336;2023-10-13T08:27:15;2.93;;;0.93;;
12383;SDS011;6256;63.808;20.336;2023-10-13T08:30:02;1.40;;;0.97;;
12383;SDS011;6256;63.808;20.336;2023-10-13T08:32:47;1.60;;;0.80;;
12383;SDS011;6256;63.808;20.336;2023-10-13T08:35:20;0.97;;;0.87;;
12383;SDS011;6256;63.808;20.336;2023-10-13T08:38:08;0.77;;;0.77;;
12383;SDS011;6256;63.808;20.336;2023-10-13T08:40:44;0.90;;;0.63;;
12383;SDS011;6256;63.808;20.336;2023-10-13T08:43:25;0.80;;;0.80;;
12383;SDS011;6256;63.808;20.336;2023-10-13T08:46:05;0.73;;;0.60;;
12383;SDS011;6256;63.808;20.336;2023-10-13T08:48:34;0.60;;;0.60;;
12383;SDS011;6256;63.808;20.336;2023-10-13T08:51:00;0.70;;;0.70;;
12383;SDS011;6256;63.808;20.336;2023-10-13T08:53:36;0.77;;;0.77;;
12383;SDS011;6256;63.808;20.336;2023-10-13T08:56:10;0.50;;;0.50;;
12383;SDS011;6256;63.808;20.336;2023-10-13T08:58:44;0.87;;;0.70;;
12383;SDS011;6256;63.808;20.336;2023-10-13T09:07:00;0.40;;;0.40;;
12383;SDS011;6256;63.808;20.336;2023-10-13T09:09:33;0.57;;;0.57;;
12383;SDS011;6256;63.808;20.336;2023-10-13T09:12:26;0.87;;;0.67;;
12383;SDS011;6256;63.808;20.336;2023-10-13T09:14:58;1.40;;;0.80;;
12383;SDS011;6256;63.808;20.336;2023-10-13T09:17:45;0.50;;;0.50;;
12383;SDS011;6256;63.808;20.336;2023-10-13T09:20:32;1.87;;;0.70;;
12383;SDS011;6256;63.808;20.336;2023-10-13T09:23:08;0.77;;;0.60;;
12383;SDS011;6256;63.808;20.336;2023-10-13T09:25:50;0.53;;;0.50;;
12383;SDS011;6256;63.808;20.336;2023-10-13T09:28:23;0.60;;;0.40;;
12383;SDS011;6256;63.808;20.336;2023-10-13T09:30:53;0.30;;;0.30;;
12383;SDS011;6256;63.808;20.336;2023-10-13T09:33:22;1.37;;;0.50;;
12383;SDS011;6256;63.808;20.336;2023-10-13T09:36:04;0.40;;;0.40;;
12383;SDS011;6256;63.808;20.336;2023-10-13T09:38:35;0.40;;;0.40;;
12383;SDS011;6256;63.808;20.336;2023-10-13T09:41:06;0.57;;;0.40;;
12383;SDS011;6256;63.808;20.336;2023-10-13T09:43:51;1.23;;;0.50;;
12383;SDS011;6256;63.808;20.336;2023-10-13T09:46:20;0.60;;;0.60;;
12383;SDS011;6256;63.808;20.336;2023-10-13T09:48:53;0.40;;;0.40;;
12383;SDS011;6256;63.808;20.336;2023-10-13T09:51:32;2.00;;;0.50;;
12383;SDS011;6256;63.808;20.336;2023-10-13T09:56:35;0.50;;;0.50;;
12383;SDS011;6256;63.808;20.336;2023-10-13T09:59:19;0.90;;;0.60;;
12383;SDS011;6256;63.808;20.336;2023-10-13T10:02:00;0.40;;;0.40;;
12383;SDS011;6256;63.808;20.336;2023-10-13T10:04:33;0.60;;;0.50;;
12383;SDS011;6256;63.808;20.336;2023-10-13T10:07:10;0.50;;;0.50;;
12383;SDS011;6256;63.808;20.336;2023-10-13T10:09:36;1.17;;;0.70;;
12383;SDS011;6256;63.808;20.336;2023-10-13T10:15:09;5.60;;;1.00;;
12383;SDS011;6256;63.808;20.336;2023-10-13T10:17:45;0.70;;;0.70;;
12383;SDS011;6256;63.808;20.336;2023-10-13T10:20:12;0.40;;;0.40;;
12383;SDS011;6256;63.808;20.336;2023-10-13T10:22:54;0.40;;;0.40;;
12383;SDS011;6256;63.808;20.336;2023-10-13T10:25:28;0.50;;;0.50;;
12383;SDS011;6256;63.808;20.336;2023-10-13T10:28:00;0.50;;;0.50;;
12383;SDS011;6256;63.808;20.336;2023-10-13T10:30:30;2.20;;;0.60;;
12383;SDS011;6256;63.808;20.336;2023-10-13T10:33:03;2.10;;;0.60;;
12383;SDS011;6256;63.808;20.336;2023-10-13T10:35:43;0.50;;;0.50;;
12383;SDS011;6256;63.808;20.336;2023-10-13T10:41:01;0.80;;;0.80;;
12383;SDS011;6256;63.808;20.336;2023-10-13T10:46:12;1.40;;;0.90;;
12383;SDS011;6256;63.808;20.336;2023-10-13T10:48:38;1.43;;;1.10;;
12383;SDS011;6256;63.808;20.336;2023-10-13T10:51:14;1.10;;;1.00;;
12383;SDS011;6256;63.808;20.336;2023-10-13T10:53:40;1.17;;;0.93;;
12383;SDS011;6256;63.808;20.336;2023-10-13T10:56:10;1.07;;;0.97;;
12383;SDS011;6256;63.808;20.336;2023-10-13T10:58:50;1.37;;;0.80;;
12383;SDS011;6256;63.808;20.336;2023-10-13T11:01:23;1.10;;;1.00;;
12383;SDS011;6256;63.808;20.336;2023-10-13T11:04:07;0.77;;;0.77;;
12383;SDS011;6256;63.808;20.336;2023-10-13T11:06:37;1.33;;;0.90;;
12383;SDS011;6256;63.808;20.336;2023-10-13T11:09:11;1.20;;;1.10;;
12383;SDS011;6256;63.808;20.336;2023-10-13T11:11:55;1.67;;;1.10;;
12383;SDS011;6256;63.808;20.336;2023-10-13T11:14:59;0.73;;;0.73;;
12383;SDS011;6256;63.808;20.336;2023-10-13T11:17:40;1.07;;;0.80;;
12383;SDS011;6256;63.808;20.336;2023-10-13T11:20:23;1.60;;;0.90;;
12383;SDS011;6256;63.808;20.336;2023-10-13T11:23:00;0.60;;;0.60;;
12383;SDS011;6256;63.808;20.336;2023-10-13T11:25:31;0.60;;;0.60;;
12383;SDS011;6256;63.808;20.336;2023-10-13T11:28:10;1.03;;;0.60;;
12383;SDS011;6256;63.808;20.336;2023-10-13T11:30:42;0.67;;;0.60;;
12383;SDS011;6256;63.808;20.336;2023-10-13T11:33:14;0.60;;;0.60;;
12383;SDS011;6256;63.808;20.336;2023-10-13T11:35:48;0.60;;;0.60;;
12383;SDS011;6256;63.808;20.336;2023-10-13T11:38:16;0.97;;;0.50;;
12383;SDS011;6256;63.808;20.336;2023-10-13T11:41:08;0.50;;;0.50;;
12383;SDS011;6256;63.808;20.336;2023-10-13T11:43:38;0.90;;;0.53;;
12383;SDS011;6256;63.808;20.336;2023-10-13T11:46:08;0.40;;;0.40;;
12383;SDS011;6256;63.808;20.336;2023-10-13T11:48:41;0.77;;;0.50;;
12383;SDS011;6256;63.808;20.336;2023-10-13T11:51:12;0.60;;;0.60;;
12383;SDS011;6256;63.808;20.336;2023-10-13T11:53:45;0.50;;;0.50;;
12383;SDS011;6256;63.808;20.336;2023-10-13T11:56:17;0.60;;;0.53;;
12383;SDS011;6256;63.808;20.336;2023-10-13T11:58:46;0.90;;;0.63;;
12383;SDS011;6256;63.808;20.336;2023-10-13T12:01:12;0.80;;;0.60;;
12383;SDS011;6256;63.808;20.336;2023-10-13T12:03:38;0.70;;;0.70;;
12383;SDS011;6256;63.808;20.336;2023-10-13T12:06:26;0.73;;;0.73;;
12383;SDS011;6256;63.808;20.336;2023-10-13T12:09:01;0.83;;;0.83;;
12383;SDS011;6256;63.808;20.336;2023-10-13T12:11:43;0.70;;;0.70;;
12383;SDS011;6256;63.808;20.336;2023-10-13T12:14:16;1.03;;;0.83;;
12383;SDS011;6256;63.808;20.336;2023-10-13T12:16:47;1.30;;;1.20;;
12383;SDS011;6256;63.808;20.336;2023-10-13T12:19:16;0.87;;;0.83;;
12383;SDS011;6256;63.808;20.336;2023-10-13T12:21:45;0.70;;;0.60;;
12383;SDS011;6256;63.808;20.336;2023-10-13T12:24:13;0.50;;;0.50;;
12383;SDS011;6256;63.808;20.336;2023-10-13T12:26:56;0.70;;;0.60;;
12383;SDS011;6256;63.808;20.336;2023-10-13T12:29:23;0.50;;;0.50;;
12383;SDS011;6256;63.808;20.336;2023-10-13T12:31:53;1.60;;;0.30;;
12383;SDS011;6256;63.808;20.336;2023-10-13T12:34:37;0.40;;;0.40;;
12383;SDS011;6256;63.808;20.336;2023-10-13T12:37:21;0.40;;;0.40;;
12383;SDS011;6256;63.808;20.336;2023-10-13T12:40:03;1.07;;;0.40;;
12383;SDS011;6256;63.808;20.336;2023-10-13T12:42:51;0.50;;;0.50;;
12383;SDS011;6256;63.808;20.336;2023-10-13T12:45:39;0.47;;;0.47;;
12383;SDS011;6256;63.808;20.336;2023-10-13T12:48:27;0.40;;;0.40;;
12383;SDS011;6256;63.808;20.336;2023-10-13T12:51:12;0.40;;;0.40;;
12383;SDS011;6256;63.808;20.336;2023-10-13T12:53:49;0.30;;;0.30;;
12383;SDS011;6256;63.808;20.336;2023-10-13T12:56:16;0.63;;;0.40;;
12383;SDS011;6256;63.808;20.336;2023-10-13T12:58:43;0.40;;;0.40;;
12383;SDS011;6256;63.808;20.336;2023-10-13T13:01:19;0.40;;;0.40;;
12383;SDS011;6256;63.808;20.336;2023-10-13T13:03:49;0.60;;;0.40;;
12383;SDS011;6256;63.808;20.336;2023-10-13T13:06:19;0.20;;;0.20;;
12383;SDS011;6256;63.808;20.336;2023-10-13T13:08:53;0.73;;;0.63;;
12383;SDS011;6256;63.808;20.336;2023-10-13T13:11:19;0.47;;;0.47;;
12383;SDS011;6256;63.808;20.336;2023-10-13T13:13:45;0.40;;;0.40;;
12383;SDS011;6256;63.808;20.336;2023-10-13T13:16:12;0.30;;;0.30;;
12383;SDS011;6256;63.808;20.336;2023-10-13T13:18:38;1.03;;;0.40;;
12383;SDS011;6256;63.808;20.336;2023-10-13T13:21:04;0.60;;;0.30;;
12383;SDS011;6256;63.808;20.336;2023-10-13T13:23:36;0.40;;;0.40;;
12383;SDS011;6256;63.808;20.336;2023-10-13T13:26:04;0.40;;;0.40;;
12383;SDS011;6256;63.808;20.336;2023-10-13T13:28:41;0.47;;;0.47;;
12383;SDS011;6256;63.808;20.336;2023-10-13T13:31:07;0.63;;;0.40;;
12383;SDS011;6256;63.808;20.336;2023-10-13T13:33:34;0.40;;;0.40;;
12383;SDS011;6256;63.808;20.336;2023-10-13T13:36:06;0.40;;;0.40;;
12383;SDS011;6256;63.808;20.336;2023-10-13T13:38:37;0.63;;;0.40;;
12383;SDS011;6256;63.808;20.336;2023-10-13T13:41:05;0.67;;;0.40;;
12383;SDS011;6256;63.808;20.336;2023-10-13T13:43:43;1.17;;;0.50;;
12383;SDS011;6256;63.808;20.336;2023-10-13T13:46:15;0.60;;;0.60;;
12383;SDS011;6256;63.808;20.336;2023-10-13T13:48:49;0.50;;;0.50;;
12383;SDS011;6256;63.808;20.336;2023-10-13T13:51:16;0.40;;;0.40;;
12383;SDS011;6256;63.808;20.336;2023-10-13T13:53:51;0.60;;;0.60;;
12383;SDS011;6256;63.808;20.336;2023-10-13T13:56:18;0.50;;;0.50;;
12383;SDS011;6256;63.808;20.336;2023-10-13T13:58:44;0.50;;;0.50;;
12383;SDS011;6256;63.808;20.336;2023-10-13T14:01:11;3.03;;;0.73;;
12383;SDS011;6256;63.808;20.336;2023-10-13T14:03:41;0.83;;;0.83;;
12383;SDS011;6256;63.808;20.336;2023-10-13T14:06:10;0.40;;;0.40;;
12383;SDS011;6256;63.808;20.336;2023-10-13T14:08:47;0.60;;;0.60;;
12383;SDS011;6256;63.808;20.336;2023-10-13T14:11:24;0.70;;;0.70;;
12383;SDS011;6256;63.808;20.336;2023-10-13T14:14:14;1.10;;;1.00;;
12383;SDS011;6256;63.808;20.336;2023-10-13T14:16:54;0.80;;;0.80;;
12383;SDS011;6256;63.808;20.336;2023-10-13T14:19:28;1.13;;;1.03;;
12383;SDS011;6256;63.808;20.336;2023-10-13T14:24:20;0.63;;;0.60;;
12383;SDS011;6256;63.808;20.336;2023-10-13T14:26:55;0.50;;;0.50;;
12383;SDS011;6256;63.808;20.336;2023-10-13T14:29:27;0.40;;;0.40;;
12383;SDS011;6256;63.808;20.336;2023-10-13T14:31:53;0.40;;;0.40;;
12383;SDS011;6256;63.808;20.336;2023-10-13T14:34:18;0.30;;;0.30;;
12383;SDS011;6256;63.808;20.336;2023-10-13T14:36:47;0.60;;;0.60;;
12383;SDS011;6256;63.808;20.336;2023-10-13T14:39:13;0.87;;;0.50;;
12383;SDS011;6256;63.808;20.336;2023-10-13T14:41:39;0.50;;;0.50;;
12383;SDS011;6256;63.808;20.336;2023-10-13T14:44:06;0.60;;;0.60;;
12383;SDS011;6256;63.808;20.336;2023-10-13T14:46:32;0.40;;;0.40;;
12383;SDS011;6256;63.808;20.336;2023-10-13T14:49:04;0.60;;;0.60;;
12383;SDS011;6256;63.808;20.336;2023-10-13T14:51:30;0.70;;;0.70;;
12383;SDS011;6256;63.808;20.336;2023-10-13T14:53:57;0.80;;;0.53;;
12383;SDS011;6256;63.808;20.336;2023-10-13T14:56:24;1.03;;;0.47;;
12383;SDS011;6256;63.808;20.336;2023-10-13T14:58:52;0.73;;;0.73;;
12383;SDS011;6256;63.808;20.336;2023-10-13T15:01:19;1.97;;;1.07;;
12383;SDS011;6256;63.808;20.336;2023-10-13T15:03:47;4.30;;;2.30;;
12383;SDS011;6256;63.808;20.336;2023-10-13T15:06:18;1.60;;;1.50;;
12383;SDS011;6256;63.808;20.336;2023-10-13T15:08:55;1.37;;;1.27;;
12383;SDS011;6256;63.808;20.336;2023-10-13T15:11:22;1.20;;;1.00;;
12383;SDS011;6256;63.808;20.336;2023-10-13T15:13:54;1.63;;;1.13;;
12383;SDS011;6256;63.808;20.336;2023-10-13T15:16:22;1.10;;;0.80;;
12383;SDS011;6256;63.808;20.336;2023-10-13T15:18:50;2.07;;;1.00;;
12383;SDS011;6256;63.808;20.336;2023-10-13T15:21:26;0.90;;;0.90;;
12383;SDS011;6256;63.808;20.336;2023-10-13T15:24:16;0.87;;;0.70;;
12383;SDS011;6256;63.808;20.336;2023-10-13T15:26:43;0.60;;;0.53;;
12383;SDS011;6256;63.808;20.336;2023-10-13T15:31:44;1.47;;;1.00;;
12383;SDS011;6256;63.808;20.336;2023-10-13T15:34:30;0.63;;;0.60;;
12383;SDS011;6256;63.808;20.336;2023-10-13T15:36:57;0.87;;;0.70;;
12383;SDS011;6256;63.808;20.336;2023-10-13T15:39:24;1.47;;;0.73;;
12383;SDS011;6256;63.808;20.336;2023-10-13T15:41:53;1.00;;;0.80;;
12383;SDS011;6256;63.808;20.336;2023-10-13T15:44:23;1.33;;;0.70;;
12383;SDS011;6256;63.808;20.336;2023-10-13T15:46:53;2.00;;;1.00;;
12383;SDS011;6256;63.808;20.336;2023-10-13T15:49:20;1.00;;;1.00;;
12383;SDS011;6256;63.808;20.336;2023-10-13T15:51:47;1.80;;;1.30;;
12383;SDS011;6256;63.808;20.336;2023-10-13T15:54:12;3.00;;;1.20;;
12383;SDS011;6256;63.808;20.336;2023-10-13T15:56:42;2.07;;;1.47;;
12383;SDS011;6256;63.808;20.336;2023-10-13T15:59:09;2.07;;;1.90;;
12383;SDS011;6256;63.808;20.336;2023-10-13T16:01:35;2.73;;;2.00;;
12383;SDS011;6256;63.808;20.336;2023-10-13T16:04:01;2.97;;;2.40;;
12383;SDS011;6256;63.808;20.336;2023-10-13T16:06:38;2.97;;;1.30;;